KACY/ACY METAR and TAF weather

Enter ICAO airport designator
Station Type Date Time Source
KACY METAR 2018/12/13 14:54 UTC NOAA

KACY 131454Z 13007KT 10SM SCT033 OVC060 08/02 A3036 RMK AO2 SLP282 T00780022 51018


Station Type Date Time Source
KACY Decoded METAR 2018/12/13 14:54 UTC NOAA

ATLANTIC CITY INTERNATIONAL, NJ, United States (KACY) 39-28N 74-35W 35M
Dec 13, 2018 - 09:54 AM EST / 2018.12.13 1454 UTC
Wind: from the SE (130 degrees) at 8 MPH (7 KT):0
Visibility: 10 mile(s):0
Sky conditions: overcast
Temperature: 46.0 F (7.8 C)
Dew Point: 36.0 F (2.2 C)
Relative Humidity: 67%
Pressure (altimeter): 30.36 in. Hg (1028 hPa)
Pressure tendency: 0.05 inches (1.8 hPa) higher than three hours ago
ob: KACY 131454Z 13007KT 10SM SCT033 OVC060 08/02 A3036 RMK AO2 SLP282 T00780022 51018
cycle: 15

Station Type Date Time Source
KACY TAF 2018/12/13 12:27 UTC NOAA

TAF KACY 131120Z 1312/1412 VRB03KT P6SM OVC070
FM131500 14008KT P6SM OVC050
FM140000 08005KT P6SM OVC035
FM140800 08004KT 4SM BR OVC020


Example: see airport list